sensor_id;sensor_type;location;lat;lon;timestamp;P1;durP1;ratioP1;P2;durP2;ratioP2
11651;SDS011;5882;48.818;9.114;2022-07-23T00:00:08;3.00;;;2.80;;
11651;SDS011;5882;48.818;9.114;2022-07-23T00:02:35;2.70;;;2.50;;
11651;SDS011;5882;48.818;9.114;2022-07-23T00:05:01;2.88;;;2.63;;
11651;SDS011;5882;48.818;9.114;2022-07-23T00:07:29;2.80;;;2.60;;
11651;SDS011;5882;48.818;9.114;2022-07-23T00:09:56;2.72;;;2.53;;
11651;SDS011;5882;48.818;9.114;2022-07-23T00:12:23;3.40;;;3.10;;
11651;SDS011;5882;48.818;9.114;2022-07-23T00:14:49;3.15;;;2.85;;
11651;SDS011;5882;48.818;9.114;2022-07-23T00:17:16;3.13;;;2.88;;
11651;SDS011;5882;48.818;9.114;2022-07-23T00:19:42;2.97;;;2.78;;
11651;SDS011;5882;48.818;9.114;2022-07-23T00:22:09;3.30;;;3.10;;
11651;SDS011;5882;48.818;9.114;2022-07-23T00:24:36;4.05;;;3.33;;
11651;SDS011;5882;48.818;9.114;2022-07-23T00:27:03;3.13;;;2.78;;
11651;SDS011;5882;48.818;9.114;2022-07-23T00:29:30;2.80;;;2.60;;
11651;SDS011;5882;48.818;9.114;2022-07-23T00:31:56;3.08;;;2.85;;
11651;SDS011;5882;48.818;9.114;2022-07-23T00:34:22;2.88;;;2.67;;
11651;SDS011;5882;48.818;9.114;2022-07-23T00:36:49;2.65;;;2.45;;
11651;SDS011;5882;48.818;9.114;2022-07-23T00:39:15;2.80;;;2.60;;
11651;SDS011;5882;48.818;9.114;2022-07-23T00:41:43;3.00;;;2.80;;
11651;SDS011;5882;48.818;9.114;2022-07-23T00:44:17;3.10;;;2.90;;
11651;SDS011;5882;48.818;9.114;2022-07-23T00:46:45;2.90;;;2.70;;
11651;SDS011;5882;48.818;9.114;2022-07-23T00:49:11;2.83;;;2.63;;
11651;SDS011;5882;48.818;9.114;2022-07-23T00:51:38;3.10;;;2.90;;
11651;SDS011;5882;48.818;9.114;2022-07-23T00:54:04;4.50;;;2.97;;
11651;SDS011;5882;48.818;9.114;2022-07-23T00:56:31;3.53;;;3.22;;
11651;SDS011;5882;48.818;9.114;2022-07-23T00:59:00;3.13;;;2.85;;
11651;SDS011;5882;48.818;9.114;2022-07-23T01:01:27;3.20;;;2.95;;
11651;SDS011;5882;48.818;9.114;2022-07-23T01:03:53;3.30;;;3.00;;
11651;SDS011;5882;48.818;9.114;2022-07-23T01:06:20;3.45;;;3.15;;
11651;SDS011;5882;48.818;9.114;2022-07-23T01:08:46;2.85;;;2.65;;
11651;SDS011;5882;48.818;9.114;2022-07-23T01:11:13;2.90;;;2.70;;
11651;SDS011;5882;48.818;9.114;2022-07-23T01:13:40;2.90;;;2.70;;
11651;SDS011;5882;48.818;9.114;2022-07-23T01:16:08;3.63;;;3.20;;
11651;SDS011;5882;48.818;9.114;2022-07-23T01:18:35;3.03;;;2.80;;
11651;SDS011;5882;48.818;9.114;2022-07-23T01:21:01;3.40;;;3.10;;
11651;SDS011;5882;48.818;9.114;2022-07-23T01:23:29;2.97;;;2.78;;
11651;SDS011;5882;48.818;9.114;2022-07-23T01:25:56;3.22;;;2.92;;
11651;SDS011;5882;48.818;9.114;2022-07-23T01:28:22;3.08;;;2.75;;
11651;SDS011;5882;48.818;9.114;2022-07-23T01:30:49;3.08;;;2.88;;
11651;SDS011;5882;48.818;9.114;2022-07-23T01:33:18;3.15;;;2.88;;
11651;SDS011;5882;48.818;9.114;2022-07-23T01:35:45;3.25;;;2.50;;
11651;SDS011;5882;48.818;9.114;2022-07-23T01:38:12;3.13;;;2.92;;
11651;SDS011;5882;48.818;9.114;2022-07-23T01:40:40;3.20;;;2.90;;
11651;SDS011;5882;48.818;9.114;2022-07-23T01:43:06;3.30;;;3.00;;
11651;SDS011;5882;48.818;9.114;2022-07-23T01:45:33;3.08;;;2.88;;
11651;SDS011;5882;48.818;9.114;2022-07-23T01:48:03;2.90;;;2.70;;
11651;SDS011;5882;48.818;9.114;2022-07-23T01:50:30;2.80;;;2.60;;
11651;SDS011;5882;48.818;9.114;2022-07-23T01:52:56;3.55;;;3.28;;
11651;SDS011;5882;48.818;9.114;2022-07-23T01:55:22;3.40;;;3.10;;
11651;SDS011;5882;48.818;9.114;2022-07-23T01:57:50;3.08;;;2.80;;
11651;SDS011;5882;48.818;9.114;2022-07-23T02:00:17;3.10;;;2.90;;
11651;SDS011;5882;48.818;9.114;2022-07-23T02:02:43;3.10;;;2.90;;
11651;SDS011;5882;48.818;9.114;2022-07-23T02:05:10;3.35;;;3.05;;
11651;SDS011;5882;48.818;9.114;2022-07-23T02:07:36;3.15;;;2.95;;
11651;SDS011;5882;48.818;9.114;2022-07-23T02:10:03;3.17;;;2.92;;
11651;SDS011;5882;48.818;9.114;2022-07-23T02:12:30;3.50;;;3.13;;
11651;SDS011;5882;48.818;9.114;2022-07-23T02:14:58;3.10;;;2.80;;
11651;SDS011;5882;48.818;9.114;2022-07-23T02:17:25;3.35;;;3.15;;
11651;SDS011;5882;48.818;9.114;2022-07-23T02:19:51;2.50;;;2.30;;
11651;SDS011;5882;48.818;9.114;2022-07-23T02:22:18;3.15;;;2.80;;
11651;SDS011;5882;48.818;9.114;2022-07-23T02:24:44;2.97;;;2.78;;
11651;SDS011;5882;48.818;9.114;2022-07-23T02:27:11;2.97;;;2.78;;
11651;SDS011;5882;48.818;9.114;2022-07-23T02:29:37;2.90;;;2.70;;
11651;SDS011;5882;48.818;9.114;2022-07-23T02:32:05;3.25;;;3.03;;
11651;SDS011;5882;48.818;9.114;2022-07-23T02:34:32;4.15;;;3.50;;
11651;SDS011;5882;48.818;9.114;2022-07-23T02:36:58;3.03;;;2.78;;
11651;SDS011;5882;48.818;9.114;2022-07-23T02:39:27;3.50;;;3.20;;
11651;SDS011;5882;48.818;9.114;2022-07-23T02:41:54;3.03;;;2.83;;
11651;SDS011;5882;48.818;9.114;2022-07-23T02:44:20;3.58;;;3.28;;
11651;SDS011;5882;48.818;9.114;2022-07-23T02:46:46;3.55;;;3.25;;
11651;SDS011;5882;48.818;9.114;2022-07-23T02:49:14;3.60;;;3.03;;
11651;SDS011;5882;48.818;9.114;2022-07-23T02:51:41;3.55;;;3.25;;
11651;SDS011;5882;48.818;9.114;2022-07-23T02:54:08;3.75;;;3.13;;
11651;SDS011;5882;48.818;9.114;2022-07-23T02:56:34;3.47;;;3.20;;
11651;SDS011;5882;48.818;9.114;2022-07-23T02:59:00;3.55;;;3.25;;
11651;SDS011;5882;48.818;9.114;2022-07-23T03:01:27;3.78;;;3.38;;
11651;SDS011;5882;48.818;9.114;2022-07-23T03:03:53;3.63;;;3.33;;
11651;SDS011;5882;48.818;9.114;2022-07-23T03:06:21;3.83;;;3.45;;
11651;SDS011;5882;48.818;9.114;2022-07-23T03:08:48;3.80;;;3.50;;
11651;SDS011;5882;48.818;9.114;2022-07-23T03:11:14;3.55;;;3.25;;
11651;SDS011;5882;48.818;9.114;2022-07-23T03:13:41;3.35;;;3.10;;
11651;SDS011;5882;48.818;9.114;2022-07-23T03:16:07;4.15;;;3.35;;
11651;SDS011;5882;48.818;9.114;2022-07-23T03:18:34;3.80;;;3.50;;
11651;SDS011;5882;48.818;9.114;2022-07-23T03:21:00;4.15;;;3.08;;
11651;SDS011;5882;48.818;9.114;2022-07-23T03:23:28;3.78;;;3.47;;
11651;SDS011;5882;48.818;9.114;2022-07-23T03:25:55;3.50;;;3.20;;
11651;SDS011;5882;48.818;9.114;2022-07-23T03:28:21;4.38;;;3.00;;
11651;SDS011;5882;48.818;9.114;2022-07-23T03:30:48;3.10;;;2.67;;
11651;SDS011;5882;48.818;9.114;2022-07-23T03:33:15;3.45;;;3.15;;
11651;SDS011;5882;48.818;9.114;2022-07-23T03:35:42;3.50;;;3.20;;
11651;SDS011;5882;48.818;9.114;2022-07-23T03:38:09;3.63;;;3.33;;
11651;SDS011;5882;48.818;9.114;2022-07-23T03:40:37;3.30;;;3.00;;
11651;SDS011;5882;48.818;9.114;2022-07-23T03:43:03;3.30;;;3.00;;
11651;SDS011;5882;48.818;9.114;2022-07-23T03:45:30;4.13;;;2.88;;
11651;SDS011;5882;48.818;9.114;2022-07-23T03:47:56;3.17;;;2.97;;
11651;SDS011;5882;48.818;9.114;2022-07-23T03:50:23;3.88;;;3.58;;
11651;SDS011;5882;48.818;9.114;2022-07-23T03:52:50;3.10;;;2.90;;
11651;SDS011;5882;48.818;9.114;2022-07-23T03:55:16;3.47;;;3.13;;
11651;SDS011;5882;48.818;9.114;2022-07-23T03:57:44;3.47;;;3.20;;
11651;SDS011;5882;48.818;9.114;2022-07-23T04:00:11;3.08;;;2.83;;
11651;SDS011;5882;48.818;9.114;2022-07-23T04:02:38;3.63;;;3.33;;
11651;SDS011;5882;48.818;9.114;2022-07-23T04:05:06;3.30;;;3.00;;
11651;SDS011;5882;48.818;9.114;2022-07-23T04:07:33;3.47;;;3.17;;
11651;SDS011;5882;48.818;9.114;2022-07-23T04:09:59;3.83;;;3.53;;
11651;SDS011;5882;48.818;9.114;2022-07-23T04:12:26;4.05;;;3.67;;
11651;SDS011;5882;48.818;9.114;2022-07-23T04:14:54;3.30;;;3.00;;
11651;SDS011;5882;48.818;9.114;2022-07-23T04:17:20;3.83;;;3.15;;
11651;SDS011;5882;48.818;9.114;2022-07-23T04:19:47;3.45;;;3.25;;
11651;SDS011;5882;48.818;9.114;2022-07-23T04:22:13;3.10;;;2.90;;
11651;SDS011;5882;48.818;9.114;2022-07-23T04:24:39;3.42;;;3.13;;
11651;SDS011;5882;48.818;9.114;2022-07-23T04:27:06;3.67;;;3.33;;
11651;SDS011;5882;48.818;9.114;2022-07-23T04:29:33;3.60;;;3.30;;
11651;SDS011;5882;48.818;9.114;2022-07-23T04:32:01;3.67;;;3.38;;
11651;SDS011;5882;48.818;9.114;2022-07-23T04:34:27;3.45;;;3.15;;
11651;SDS011;5882;48.818;9.114;2022-07-23T04:36:54;3.38;;;3.13;;
11651;SDS011;5882;48.818;9.114;2022-07-23T04:39:20;3.65;;;3.35;;
11651;SDS011;5882;48.818;9.114;2022-07-23T04:41:47;3.78;;;3.47;;
11651;SDS011;5882;48.818;9.114;2022-07-23T04:44:14;3.80;;;3.50;;
11651;SDS011;5882;48.818;9.114;2022-07-23T04:46:40;3.53;;;3.08;;
11651;SDS011;5882;48.818;9.114;2022-07-23T04:49:08;3.17;;;2.97;;
11651;SDS011;5882;48.818;9.114;2022-07-23T04:51:35;4.20;;;3.70;;
11651;SDS011;5882;48.818;9.114;2022-07-23T04:54:01;3.40;;;3.10;;
11651;SDS011;5882;48.818;9.114;2022-07-23T04:56:28;3.50;;;3.25;;
11651;SDS011;5882;48.818;9.114;2022-07-23T04:58:54;3.40;;;3.17;;
11651;SDS011;5882;48.818;9.114;2022-07-23T05:01:23;3.70;;;3.40;;
11651;SDS011;5882;48.818;9.114;2022-07-23T05:03:51;3.65;;;3.38;;
11651;SDS011;5882;48.818;9.114;2022-07-23T05:06:19;3.90;;;3.60;;
11651;SDS011;5882;48.818;9.114;2022-07-23T05:08:48;3.67;;;3.35;;
11651;SDS011;5882;48.818;9.114;2022-07-23T05:11:14;3.53;;;3.30;;
11651;SDS011;5882;48.818;9.114;2022-07-23T05:13:41;3.38;;;3.15;;
11651;SDS011;5882;48.818;9.114;2022-07-23T05:16:07;3.72;;;3.42;;
11651;SDS011;5882;48.818;9.114;2022-07-23T05:18:34;3.42;;;3.13;;
11651;SDS011;5882;48.818;9.114;2022-07-23T05:21:00;3.40;;;3.10;;
11651;SDS011;5882;48.818;9.114;2022-07-23T05:23:28;3.35;;;3.08;;
11651;SDS011;5882;48.818;9.114;2022-07-23T05:25:55;3.90;;;3.58;;
11651;SDS011;5882;48.818;9.114;2022-07-23T05:28:21;3.30;;;3.10;;
11651;SDS011;5882;48.818;9.114;2022-07-23T05:30:48;3.58;;;3.33;;
11651;SDS011;5882;48.818;9.114;2022-07-23T05:33:15;4.28;;;3.50;;
11651;SDS011;5882;48.818;9.114;2022-07-23T05:35:41;3.58;;;3.17;;
11651;SDS011;5882;48.818;9.114;2022-07-23T05:38:08;3.83;;;3.40;;
11651;SDS011;5882;48.818;9.114;2022-07-23T05:40:35;3.83;;;3.53;;
11651;SDS011;5882;48.818;9.114;2022-07-23T05:43:02;3.40;;;3.20;;
11651;SDS011;5882;48.818;9.114;2022-07-23T05:45:28;3.25;;;2.97;;
11651;SDS011;5882;48.818;9.114;2022-07-23T05:47:55;3.33;;;2.83;;
11651;SDS011;5882;48.818;9.114;2022-07-23T05:50:21;3.28;;;3.00;;
11651;SDS011;5882;48.818;9.114;2022-07-23T05:52:48;3.55;;;3.17;;
11651;SDS011;5882;48.818;9.114;2022-07-23T05:55:14;3.33;;;3.03;;
11651;SDS011;5882;48.818;9.114;2022-07-23T05:57:42;3.60;;;3.30;;
11651;SDS011;5882;48.818;9.114;2022-07-23T06:00:09;3.50;;;3.28;;
11651;SDS011;5882;48.818;9.114;2022-07-23T06:02:37;3.22;;;3.00;;
11651;SDS011;5882;48.818;9.114;2022-07-23T06:05:04;3.30;;;3.00;;
11651;SDS011;5882;48.818;9.114;2022-07-23T06:07:30;3.90;;;3.60;;
11651;SDS011;5882;48.818;9.114;2022-07-23T06:09:57;3.75;;;3.45;;
11651;SDS011;5882;48.818;9.114;2022-07-23T06:12:24;3.17;;;2.97;;
11651;SDS011;5882;48.818;9.114;2022-07-23T06:14:52;3.70;;;3.40;;
11651;SDS011;5882;48.818;9.114;2022-07-23T06:17:18;3.67;;;3.38;;
11651;SDS011;5882;48.818;9.114;2022-07-23T06:19:45;3.60;;;3.20;;
11651;SDS011;5882;48.818;9.114;2022-07-23T06:22:11;4.05;;;3.33;;
11651;SDS011;5882;48.818;9.114;2022-07-23T06:24:38;3.70;;;3.40;;
11651;SDS011;5882;48.818;9.114;2022-07-23T06:27:07;3.05;;;2.85;;
11651;SDS011;5882;48.818;9.114;2022-07-23T06:29:33;3.53;;;3.22;;
11651;SDS011;5882;48.818;9.114;2022-07-23T06:32:02;3.72;;;3.42;;
11651;SDS011;5882;48.818;9.114;2022-07-23T06:34:28;3.55;;;3.25;;
11651;SDS011;5882;48.818;9.114;2022-07-23T06:36:55;3.30;;;3.05;;
11651;SDS011;5882;48.818;9.114;2022-07-23T06:39:21;4.90;;;3.35;;
11651;SDS011;5882;48.818;9.114;2022-07-23T06:41:48;3.80;;;3.50;;
11651;SDS011;5882;48.818;9.114;2022-07-23T06:44:15;3.70;;;3.40;;
11651;SDS011;5882;48.818;9.114;2022-07-23T06:46:41;3.80;;;3.50;;
11651;SDS011;5882;48.818;9.114;2022-07-23T06:49:09;4.20;;;3.33;;
11651;SDS011;5882;48.818;9.114;2022-07-23T06:51:36;3.40;;;3.10;;
11651;SDS011;5882;48.818;9.114;2022-07-23T06:54:03;3.70;;;3.40;;
11651;SDS011;5882;48.818;9.114;2022-07-23T06:56:30;3.92;;;3.63;;
11651;SDS011;5882;48.818;9.114;2022-07-23T06:58:56;3.83;;;3.53;;
11651;SDS011;5882;48.818;9.114;2022-07-23T07:01:23;3.80;;;3.42;;
11651;SDS011;5882;48.818;9.114;2022-07-23T07:03:50;3.90;;;3.50;;
11651;SDS011;5882;48.818;9.114;2022-07-23T07:06:18;3.80;;;3.50;;
11651;SDS011;5882;48.818;9.114;2022-07-23T07:08:44;3.50;;;3.20;;
11651;SDS011;5882;48.818;9.114;2022-07-23T07:11:11;3.67;;;3.38;;
11651;SDS011;5882;48.818;9.114;2022-07-23T07:13:38;4.18;;;3.88;;
11651;SDS011;5882;48.818;9.114;2022-07-23T07:16:04;4.43;;;3.55;;
11651;SDS011;5882;48.818;9.114;2022-07-23T07:18:31;4.18;;;3.78;;
11651;SDS011;5882;48.818;9.114;2022-07-23T07:20:58;4.03;;;3.63;;
11651;SDS011;5882;48.818;9.114;2022-07-23T07:23:26;4.22;;;3.70;;
11651;SDS011;5882;48.818;9.114;2022-07-23T07:25:52;3.85;;;3.55;;
11651;SDS011;5882;48.818;9.114;2022-07-23T07:28:19;4.32;;;4.00;;
11651;SDS011;5882;48.818;9.114;2022-07-23T07:30:46;3.85;;;3.55;;
11651;SDS011;5882;48.818;9.114;2022-07-23T07:33:12;4.18;;;3.78;;
11651;SDS011;5882;48.818;9.114;2022-07-23T07:35:39;4.25;;;3.85;;
11651;SDS011;5882;48.818;9.114;2022-07-23T07:38:05;3.92;;;3.53;;
11651;SDS011;5882;48.818;9.114;2022-07-23T07:40:33;3.70;;;3.40;;
11651;SDS011;5882;48.818;9.114;2022-07-23T07:43:00;4.00;;;3.70;;
11651;SDS011;5882;48.818;9.114;2022-07-23T07:45:31;4.30;;;3.83;;
11651;SDS011;5882;48.818;9.114;2022-07-23T07:47:58;4.18;;;3.78;;
11651;SDS011;5882;48.818;9.114;2022-07-23T07:50:24;3.78;;;3.47;;
11651;SDS011;5882;48.818;9.114;2022-07-23T07:52:51;3.85;;;3.55;;
11651;SDS011;5882;48.818;9.114;2022-07-23T07:55:18;4.15;;;3.63;;
11651;SDS011;5882;48.818;9.114;2022-07-23T07:57:46;4.15;;;3.40;;
11651;SDS011;5882;48.818;9.114;2022-07-23T08:00:12;4.57;;;4.18;;
11651;SDS011;5882;48.818;9.114;2022-07-23T08:02:40;3.95;;;3.55;;
11651;SDS011;5882;48.818;9.114;2022-07-23T08:05:07;4.13;;;3.67;;
11651;SDS011;5882;48.818;9.114;2022-07-23T08:07:33;3.72;;;3.25;;
11651;SDS011;5882;48.818;9.114;2022-07-23T08:10:00;3.97;;;3.67;;
11651;SDS011;5882;48.818;9.114;2022-07-23T08:12:27;3.78;;;3.47;;
11651;SDS011;5882;48.818;9.114;2022-07-23T08:14:55;3.80;;;3.50;;
11651;SDS011;5882;48.818;9.114;2022-07-23T08:17:21;4.35;;;3.58;;
11651;SDS011;5882;48.818;9.114;2022-07-23T08:19:48;3.90;;;3.60;;
11651;SDS011;5882;48.818;9.114;2022-07-23T08:22:14;4.00;;;3.65;;
11651;SDS011;5882;48.818;9.114;2022-07-23T08:24:41;4.30;;;3.90;;
11651;SDS011;5882;48.818;9.114;2022-07-23T08:27:08;3.83;;;3.53;;
11651;SDS011;5882;48.818;9.114;2022-07-23T08:29:34;4.28;;;3.88;;
11651;SDS011;5882;48.818;9.114;2022-07-23T08:32:06;3.97;;;3.67;;
11651;SDS011;5882;48.818;9.114;2022-07-23T08:34:32;4.00;;;3.60;;
11651;SDS011;5882;48.818;9.114;2022-07-23T08:36:59;4.03;;;3.47;;
11651;SDS011;5882;48.818;9.114;2022-07-23T08:39:25;3.63;;;3.20;;
11651;SDS011;5882;48.818;9.114;2022-07-23T08:41:52;3.85;;;3.50;;
11651;SDS011;5882;48.818;9.114;2022-07-23T08:44:19;3.50;;;3.20;;
11651;SDS011;5882;48.818;9.114;2022-07-23T08:46:45;5.60;;;3.47;;
11651;SDS011;5882;48.818;9.114;2022-07-23T08:49:14;3.40;;;3.10;;
11651;SDS011;5882;48.818;9.114;2022-07-23T08:51:40;3.25;;;2.95;;
11651;SDS011;5882;48.818;9.114;2022-07-23T08:54:07;3.97;;;3.65;;
11651;SDS011;5882;48.818;9.114;2022-07-23T08:56:34;3.58;;;3.28;;
11651;SDS011;5882;48.818;9.114;2022-07-23T08:59:01;3.65;;;3.33;;
11651;SDS011;5882;48.818;9.114;2022-07-23T09:01:27;3.38;;;3.17;;
11651;SDS011;5882;48.818;9.114;2022-07-23T09:03:54;3.30;;;3.00;;
11651;SDS011;5882;48.818;9.114;2022-07-23T09:06:22;3.20;;;2.70;;
11651;SDS011;5882;48.818;9.114;2022-07-23T09:08:48;3.63;;;3.33;;
11651;SDS011;5882;48.818;9.114;2022-07-23T09:11:16;4.00;;;3.70;;
11651;SDS011;5882;48.818;9.114;2022-07-23T09:13:45;3.20;;;3.00;;
11651;SDS011;5882;48.818;9.114;2022-07-23T09:16:13;3.40;;;3.10;;
11651;SDS011;5882;48.818;9.114;2022-07-23T09:18:41;3.55;;;2.83;;
11651;SDS011;5882;48.818;9.114;2022-07-23T09:21:10;3.50;;;3.20;;
11651;SDS011;5882;48.818;9.114;2022-07-23T09:23:39;3.70;;;3.40;;
11651;SDS011;5882;48.818;9.114;2022-07-23T09:26:19;3.42;;;3.13;;
11651;SDS011;5882;48.818;9.114;2022-07-23T09:28:50;3.30;;;3.00;;
11651;SDS011;5882;48.818;9.114;2022-07-23T09:31:17;3.03;;;2.80;;
11651;SDS011;5882;48.818;9.114;2022-07-23T09:33:44;3.55;;;3.25;;
11651;SDS011;5882;48.818;9.114;2022-07-23T09:36:11;2.70;;;2.50;;
11651;SDS011;5882;48.818;9.114;2022-07-23T09:38:48;3.55;;;3.25;;
11651;SDS011;5882;48.818;9.114;2022-07-23T09:41:15;3.67;;;3.38;;
11651;SDS011;5882;48.818;9.114;2022-07-23T09:43:42;3.00;;;2.80;;
11651;SDS011;5882;48.818;9.114;2022-07-23T09:46:21;3.22;;;2.95;;
11651;SDS011;5882;48.818;9.114;2022-07-23T09:48:49;3.08;;;2.88;;
11651;SDS011;5882;48.818;9.114;2022-07-23T09:51:16;3.30;;;3.00;;
11651;SDS011;5882;48.818;9.114;2022-07-23T09:53:45;3.47;;;3.17;;
11651;SDS011;5882;48.818;9.114;2022-07-23T09:56:13;3.50;;;3.20;;
11651;SDS011;5882;48.818;9.114;2022-07-23T09:58:40;3.22;;;3.00;;
11651;SDS011;5882;48.818;9.114;2022-07-23T10:01:13;3.17;;;2.97;;
11651;SDS011;5882;48.818;9.114;2022-07-23T10:03:41;3.47;;;3.17;;
11651;SDS011;5882;48.818;9.114;2022-07-23T10:06:08;3.45;;;3.15;;
11651;SDS011;5882;48.818;9.114;2022-07-23T10:08:34;3.17;;;2.92;;
11651;SDS011;5882;48.818;9.114;2022-07-23T10:11:01;3.58;;;3.30;;
11651;SDS011;5882;48.818;9.114;2022-07-23T10:13:29;3.67;;;3.38;;
11651;SDS011;5882;48.818;9.114;2022-07-23T10:16:14;3.38;;;3.08;;
11651;SDS011;5882;48.818;9.114;2022-07-23T10:18:40;3.40;;;3.10;;
11651;SDS011;5882;48.818;9.114;2022-07-23T10:21:08;3.28;;;2.97;;
11651;SDS011;5882;48.818;9.114;2022-07-23T10:24:04;4.13;;;3.83;;
11651;SDS011;5882;48.818;9.114;2022-07-23T10:26:37;3.22;;;3.00;;
11651;SDS011;5882;48.818;9.114;2022-07-23T10:29:10;3.00;;;2.80;;
11651;SDS011;5882;48.818;9.114;2022-07-23T10:31:42;3.45;;;3.15;;
11651;SDS011;5882;48.818;9.114;2022-07-23T10:34:14;3.60;;;3.03;;
11651;SDS011;5882;48.818;9.114;2022-07-23T10:36:44;4.00;;;3.70;;
11651;SDS011;5882;48.818;9.114;2022-07-23T10:39:15;3.40;;;3.10;;
11651;SDS011;5882;48.818;9.114;2022-07-23T10:41:43;3.40;;;3.05;;
11651;SDS011;5882;48.818;9.114;2022-07-23T10:44:11;3.30;;;3.00;;
11651;SDS011;5882;48.818;9.114;2022-07-23T10:49:53;3.17;;;2.92;;
11651;SDS011;5882;48.818;9.114;2022-07-23T10:52:23;2.90;;;2.70;;
11651;SDS011;5882;48.818;9.114;2022-07-23T10:54:52;3.85;;;3.55;;
11651;SDS011;5882;48.818;9.114;2022-07-23T10:57:19;3.10;;;2.90;;
11651;SDS011;5882;48.818;9.114;2022-07-23T11:02:41;3.70;;;3.40;;
11651;SDS011;5882;48.818;9.114;2022-07-23T11:05:09;3.15;;;2.85;;
11651;SDS011;5882;48.818;9.114;2022-07-23T11:07:36;3.30;;;3.00;;
11651;SDS011;5882;48.818;9.114;2022-07-23T11:10:05;3.17;;;2.97;;
11651;SDS011;5882;48.818;9.114;2022-07-23T11:12:32;4.72;;;3.97;;
11651;SDS011;5882;48.818;9.114;2022-07-23T11:15:01;4.05;;;3.75;;
11651;SDS011;5882;48.818;9.114;2022-07-23T11:17:31;3.83;;;3.53;;
11651;SDS011;5882;48.818;9.114;2022-07-23T11:20:17;4.03;;;3.72;;
11651;SDS011;5882;48.818;9.114;2022-07-23T11:22:50;3.85;;;3.55;;
11651;SDS011;5882;48.818;9.114;2022-07-23T11:28:17;3.70;;;3.40;;
11651;SDS011;5882;48.818;9.114;2022-07-23T11:30:46;3.95;;;3.55;;
11651;SDS011;5882;48.818;9.114;2022-07-23T11:33:15;4.00;;;3.60;;
11651;SDS011;5882;48.818;9.114;2022-07-23T11:35:43;3.50;;;3.20;;
11651;SDS011;5882;48.818;9.114;2022-07-23T11:38:12;3.90;;;3.60;;
11651;SDS011;5882;48.818;9.114;2022-07-23T11:40:40;4.05;;;3.22;;
11651;SDS011;5882;48.818;9.114;2022-07-23T11:43:07;3.97;;;3.63;;
11651;SDS011;5882;48.818;9.114;2022-07-23T11:45:36;3.30;;;3.10;;
11651;SDS011;5882;48.818;9.114;2022-07-23T11:48:04;4.00;;;3.70;;
11651;SDS011;5882;48.818;9.114;2022-07-23T11:50:31;3.70;;;3.40;;
11651;SDS011;5882;48.818;9.114;2022-07-23T11:52:58;3.70;;;3.40;;
11651;SDS011;5882;48.818;9.114;2022-07-23T11:55:24;3.90;;;3.60;;
11651;SDS011;5882;48.818;9.114;2022-07-23T11:57:53;3.30;;;3.10;;
11651;SDS011;5882;48.818;9.114;2022-07-23T12:00:21;3.28;;;2.97;;
11651;SDS011;5882;48.818;9.114;2022-07-23T12:02:50;3.88;;;3.45;;
11651;SDS011;5882;48.818;9.114;2022-07-23T12:05:17;3.13;;;2.92;;
11651;SDS011;5882;48.818;9.114;2022-07-23T12:07:44;4.10;;;3.70;;
11651;SDS011;5882;48.818;9.114;2022-07-23T12:10:15;4.07;;;3.67;;
11651;SDS011;5882;48.818;9.114;2022-07-23T12:12:43;4.03;;;3.72;;
11651;SDS011;5882;48.818;9.114;2022-07-23T12:15:10;4.38;;;3.97;;
11651;SDS011;5882;48.818;9.114;2022-07-23T12:17:37;4.35;;;3.70;;
11651;SDS011;5882;48.818;9.114;2022-07-23T12:20:07;4.07;;;3.78;;
11651;SDS011;5882;48.818;9.114;2022-07-23T12:22:35;4.00;;;3.70;;
11651;SDS011;5882;48.818;9.114;2022-07-23T12:25:03;6.18;;;5.45;;
11651;SDS011;5882;48.818;9.114;2022-07-23T12:27:30;4.35;;;4.03;;
11651;SDS011;5882;48.818;9.114;2022-07-23T12:29:57;4.03;;;3.72;;
11651;SDS011;5882;48.818;9.114;2022-07-23T12:32:25;3.38;;;3.15;;
11651;SDS011;5882;48.818;9.114;2022-07-23T12:35:01;4.15;;;3.75;;
11651;SDS011;5882;48.818;9.114;2022-07-23T12:37:31;4.10;;;3.70;;
11651;SDS011;5882;48.818;9.114;2022-07-23T12:39:59;5.68;;;4.68;;
11651;SDS011;5882;48.818;9.114;2022-07-23T12:42:44;4.07;;;3.78;;
11651;SDS011;5882;48.818;9.114;2022-07-23T12:45:14;4.22;;;3.83;;
11651;SDS011;5882;48.818;9.114;2022-07-23T12:47:51;3.53;;;3.22;;
11651;SDS011;5882;48.818;9.114;2022-07-23T12:50:38;3.78;;;3.47;;
11651;SDS011;5882;48.818;9.114;2022-07-23T12:53:08;4.43;;;3.42;;
11651;SDS011;5882;48.818;9.114;2022-07-23T12:55:35;3.90;;;3.60;;
11651;SDS011;5882;48.818;9.114;2022-07-23T12:58:02;4.03;;;3.72;;
11651;SDS011;5882;48.818;9.114;2022-07-23T13:00:29;3.75;;;3.45;;
11651;SDS011;5882;48.818;9.114;2022-07-23T13:02:56;4.03;;;3.72;;
11651;SDS011;5882;48.818;9.114;2022-07-23T13:05:23;3.58;;;3.28;;
11651;SDS011;5882;48.818;9.114;2022-07-23T13:07:49;4.00;;;3.65;;
11651;SDS011;5882;48.818;9.114;2022-07-23T13:10:17;3.83;;;3.53;;
11651;SDS011;5882;48.818;9.114;2022-07-23T13:12:44;3.88;;;3.58;;
11651;SDS011;5882;48.818;9.114;2022-07-23T13:15:10;3.50;;;3.20;;
11651;SDS011;5882;48.818;9.114;2022-07-23T13:17:37;4.30;;;4.00;;
11651;SDS011;5882;48.818;9.114;2022-07-23T13:20:04;4.90;;;4.13;;
11651;SDS011;5882;48.818;9.114;2022-07-23T13:22:31;4.78;;;4.25;;
11651;SDS011;5882;48.818;9.114;2022-07-23T13:24:57;4.15;;;3.75;;
11651;SDS011;5882;48.818;9.114;2022-07-23T13:27:25;4.40;;;4.00;;
11651;SDS011;5882;48.818;9.114;2022-07-23T13:29:52;3.72;;;3.42;;
11651;SDS011;5882;48.818;9.114;2022-07-23T13:32:19;4.63;;;4.22;;
11651;SDS011;5882;48.818;9.114;2022-07-23T13:34:45;4.72;;;4.32;;
11651;SDS011;5882;48.818;9.114;2022-07-23T13:37:12;4.55;;;4.20;;
11651;SDS011;5882;48.818;9.114;2022-07-23T13:39:38;5.05;;;4.00;;
11651;SDS011;5882;48.818;9.114;2022-07-23T13:42:05;4.63;;;4.32;;
11651;SDS011;5882;48.818;9.114;2022-07-23T13:44:33;4.55;;;4.25;;
11651;SDS011;5882;48.818;9.114;2022-07-23T13:46:59;4.82;;;4.35;;
11651;SDS011;5882;48.818;9.114;2022-07-23T13:49:26;5.18;;;4.78;;
11651;SDS011;5882;48.818;9.114;2022-07-23T13:51:53;4.07;;;3.78;;
11651;SDS011;5882;48.818;9.114;2022-07-23T13:54:19;4.28;;;3.97;;
11651;SDS011;5882;48.818;9.114;2022-07-23T13:56:45;5.10;;;4.70;;
11651;SDS011;5882;48.818;9.114;2022-07-23T13:59:12;3.63;;;3.42;;
11651;SDS011;5882;48.818;9.114;2022-07-23T14:01:40;4.63;;;4.25;;
11651;SDS011;5882;48.818;9.114;2022-07-23T14:04:07;3.92;;;3.63;;
11651;SDS011;5882;48.818;9.114;2022-07-23T14:06:33;4.30;;;3.88;;
11651;SDS011;5882;48.818;9.114;2022-07-23T14:09:00;4.75;;;4.18;;
11651;SDS011;5882;48.818;9.114;2022-07-23T14:11:26;4.07;;;3.78;;
11651;SDS011;5882;48.818;9.114;2022-07-23T14:13:55;4.05;;;3.75;;
11651;SDS011;5882;48.818;9.114;2022-07-23T14:16:22;4.10;;;3.80;;
11651;SDS011;5882;48.818;9.114;2022-07-23T14:18:50;4.07;;;3.78;;
11651;SDS011;5882;48.818;9.114;2022-07-23T14:21:16;4.22;;;3.92;;
11651;SDS011;5882;48.818;9.114;2022-07-23T14:23:45;4.10;;;3.80;;
11651;SDS011;5882;48.818;9.114;2022-07-23T14:26:12;4.18;;;3.88;;
11651;SDS011;5882;48.818;9.114;2022-07-23T14:28:39;4.15;;;3.85;;
11651;SDS011;5882;48.818;9.114;2022-07-23T14:31:06;3.55;;;3.35;;
11651;SDS011;5882;48.818;9.114;2022-07-23T14:33:32;3.97;;;3.67;;
11651;SDS011;5882;48.818;9.114;2022-07-23T14:36:00;3.60;;;3.33;;
11651;SDS011;5882;48.818;9.114;2022-07-23T14:38:27;4.10;;;3.80;;
11651;SDS011;5882;48.818;9.114;2022-07-23T14:40:55;3.78;;;3.47;;
11651;SDS011;5882;48.818;9.114;2022-07-23T14:43:22;3.85;;;3.53;;
11651;SDS011;5882;48.818;9.114;2022-07-23T14:45:48;3.63;;;3.42;;
11651;SDS011;5882;48.818;9.114;2022-07-23T14:48:15;4.40;;;4.00;;
11651;SDS011;5882;48.818;9.114;2022-07-23T14:50:42;3.78;;;3.47;;
11651;SDS011;5882;48.818;9.114;2022-07-23T14:53:10;3.72;;;3.53;;
11651;SDS011;5882;48.818;9.114;2022-07-23T14:55:36;4.10;;;3.80;;
11651;SDS011;5882;48.818;9.114;2022-07-23T14:58:03;4.53;;;3.83;;
11651;SDS011;5882;48.818;9.114;2022-07-23T15:00:29;4.25;;;3.85;;
11651;SDS011;5882;48.818;9.114;2022-07-23T15:02:56;4.07;;;3.75;;
11651;SDS011;5882;48.818;9.114;2022-07-23T15:05:22;4.32;;;3.35;;
11651;SDS011;5882;48.818;9.114;2022-07-23T15:07:49;4.57;;;4.15;;
11651;SDS011;5882;48.818;9.114;2022-07-23T15:10:17;4.45;;;4.15;;